createdAt,value
2023-09-06T00:02:04.372Z,24.65
2023-09-06T00:04:32.081Z,24.63
2023-09-06T00:06:58.911Z,24.39
2023-09-06T00:09:27.721Z,24.62
2023-09-06T00:11:54.597Z,24.69
2023-09-06T00:14:21.643Z,24.99
2023-09-06T00:16:48.520Z,25.08
2023-09-06T00:19:15.284Z,25.10
2023-09-06T00:21:42.200Z,25.24
2023-09-06T00:24:09.199Z,25.18
2023-09-06T00:26:36.971Z,25.38
2023-09-06T00:29:03.643Z,25.70
2023-09-06T00:31:30.625Z,25.81
2023-09-06T00:33:58.786Z,25.64
2023-09-06T00:36:27.029Z,25.70
2023-09-06T00:38:54.223Z,25.73
2023-09-06T00:41:21.432Z,25.73
2023-09-06T00:43:48.925Z,25.61
2023-09-06T00:46:16.528Z,25.66
2023-09-06T00:48:43.158Z,25.14
2023-09-06T00:51:09.889Z,25.09
2023-09-06T00:53:38.624Z,25.20
2023-09-06T00:56:05.669Z,25.44
2023-09-06T00:58:33.058Z,25.27
2023-09-06T01:00:59.766Z,25.02
2023-09-06T01:03:26.961Z,25.04
2023-09-06T01:05:55.316Z,24.93
2023-09-06T01:08:22.987Z,24.55
2023-09-06T01:10:49.610Z,24.43
2023-09-06T01:13:17.686Z,23.91
2023-09-06T01:15:45.486Z,23.83
2023-09-06T01:18:12.324Z,23.65
2023-09-06T01:20:38.996Z,23.48
2023-09-06T01:23:06.065Z,23.41
2023-09-06T01:25:33.010Z,23.44
2023-09-06T01:28:00.051Z,23.64
2023-09-06T01:30:27.019Z,23.67
2023-09-06T01:32:54.745Z,23.61
2023-09-06T01:35:21.724Z,23.74
2023-09-06T01:37:48.462Z,23.81
2023-09-06T01:40:16.023Z,23.90
2023-09-06T01:42:43.530Z,23.64
2023-09-06T01:45:10.471Z,23.70
2023-09-06T01:47:37.481Z,23.73
2023-09-06T01:50:05.119Z,23.74
2023-09-06T01:52:33.347Z,23.47
2023-09-06T01:55:00.224Z,23.25
2023-09-06T01:57:26.990Z,23.43
2023-09-06T01:59:53.856Z,22.88
2023-09-06T02:02:23.932Z,22.88
2023-09-06T02:04:50.573Z,22.55
2023-09-06T02:07:17.792Z,22.54
2023-09-06T02:09:47.176Z,22.66
2023-09-06T02:12:13.814Z,22.83
2023-09-06T02:14:40.618Z,22.86
2023-09-06T02:17:07.496Z,22.72
2023-09-06T02:19:34.441Z,22.79
2023-09-06T02:22:02.421Z,22.96
2023-09-06T02:24:30.140Z,23.25
2023-09-06T02:26:57.092Z,22.81
2023-09-06T02:29:23.744Z,22.81
2023-09-06T02:31:50.730Z,22.78
2023-09-06T02:34:17.726Z,23.15
2023-09-06T02:36:44.509Z,23.20
2023-09-06T02:39:12.646Z,23.05
2023-09-06T02:41:39.590Z,23.01
2023-09-06T02:44:07.258Z,22.98
2023-09-06T02:46:34.978Z,23.30
2023-09-06T02:49:02.394Z,23.11
2023-09-06T02:51:29.744Z,23.03
2023-09-06T02:53:57.211Z,23.17
2023-09-06T02:56:24.043Z,22.99
2023-09-06T02:58:52.775Z,23.07
2023-09-06T03:01:20.442Z,23.29
2023-09-06T03:03:49.515Z,23.53
2023-09-06T03:06:16.213Z,23.45
2023-09-06T03:08:50.996Z,23.36
2023-09-06T03:11:18.225Z,23.36
2023-09-06T03:13:45.329Z,23.04
2023-09-06T03:16:12.828Z,23.28
2023-09-06T03:18:40.647Z,23.50
2023-09-06T03:21:09.422Z,23.61
2023-09-06T03:23:36.737Z,23.48
2023-09-06T03:26:03.936Z,22.89
2023-09-06T03:28:34.225Z,22.59
2023-09-06T03:31:03.171Z,22.58
2023-09-06T03:33:29.838Z,22.85
2023-09-06T03:35:57.571Z,23.01
2023-09-06T03:38:24.677Z,23.29
2023-09-06T03:40:52.641Z,23.79
2023-09-06T03:43:20.008Z,23.75
2023-09-06T03:45:46.935Z,23.82
2023-09-06T03:48:13.723Z,23.97
2023-09-06T03:50:40.854Z,23.78
2023-09-06T03:53:09.791Z,23.88
2023-09-06T03:55:40.912Z,23.85
2023-09-06T03:58:08.648Z,23.31
2023-09-06T04:00:36.360Z,23.08
2023-09-06T04:03:03.970Z,22.56
2023-09-06T04:05:31.014Z,22.88
2023-09-06T04:07:58.678Z,23.08
2023-09-06T04:16:51.867Z,23.74
2023-09-06T04:19:24.356Z,23.84
2023-09-06T04:50:36.010Z,22.84
2023-09-06T04:53:03.490Z,22.74
2023-09-06T04:55:39.117Z,22.92
2023-09-06T04:58:06.489Z,23.17
2023-09-06T05:00:33.180Z,23.56
2023-09-06T05:03:00.944Z,23.71
2023-09-06T05:05:29.350Z,23.84
2023-09-06T05:07:59.156Z,23.77
2023-09-06T05:10:26.413Z,23.81
2023-09-06T05:12:55.128Z,23.45
2023-09-06T05:15:22.736Z,23.54
2023-09-06T05:17:50.651Z,23.41
2023-09-06T05:20:20.489Z,23.78
2023-09-06T05:22:47.563Z,23.64
2023-09-06T05:25:15.356Z,23.51
2023-09-06T05:27:42.553Z,23.60
2023-09-06T05:30:12.552Z,23.76
2023-09-06T05:32:40.109Z,23.71
2023-09-06T05:35:11.587Z,23.72
2023-09-06T05:37:38.477Z,23.59
2023-09-06T05:40:05.465Z,23.85
2023-09-06T05:42:34.681Z,23.88
2023-09-06T05:45:03.734Z,24.12
2023-09-06T05:47:33.564Z,24.82
2023-09-06T05:50:00.789Z,25.19
2023-09-06T05:52:33.560Z,26.14
2023-09-06T05:55:01.421Z,26.79
2023-09-06T05:57:35.309Z,27.01
2023-09-06T06:00:02.901Z,27.13
2023-09-06T06:02:37.133Z,26.99
2023-09-06T06:05:05.985Z,26.34
2023-09-06T06:07:33.245Z,26.06
2023-09-06T06:10:02.243Z,25.77
2023-09-06T06:12:37.577Z,25.92
2023-09-06T06:15:05.374Z,24.85
2023-09-06T06:17:32.501Z,25.37
2023-09-06T06:19:59.461Z,24.96
2023-09-06T06:22:26.444Z,25.51
2023-09-06T06:24:54.258Z,24.99
2023-09-06T06:27:22.149Z,25.08
2023-09-06T06:29:50.142Z,24.76
2023-09-06T06:32:18.578Z,25.14
2023-09-06T06:34:45.581Z,25.21
2023-09-06T06:37:12.354Z,25.09
2023-09-06T06:39:43.134Z,24.39
2023-09-06T06:42:09.987Z,25.31
2023-09-06T06:44:40.027Z,26.07
2023-09-06T06:47:06.990Z,27.01
2023-09-06T06:49:34.168Z,27.32
2023-09-06T06:52:01.614Z,28.05
2023-09-06T06:54:28.495Z,27.89
2023-09-06T06:56:55.917Z,28.01
2023-09-06T06:59:23.692Z,28.49
2023-09-06T07:01:50.221Z,28.97
2023-09-06T07:04:19.431Z,29.49
2023-09-06T07:06:46.867Z,29.84
2023-09-06T07:09:13.786Z,29.38
2023-09-06T07:11:40.820Z,29.03
2023-09-06T07:14:07.727Z,29.36
2023-09-06T07:16:34.870Z,29.50
2023-09-06T07:19:03.050Z,29.56
2023-09-06T07:21:30.661Z,29.61
2023-09-06T07:23:57.663Z,29.47
2023-09-06T07:26:24.654Z,29.25
2023-09-06T07:28:51.570Z,29.13
2023-09-06T07:31:22.754Z,28.86
2023-09-06T07:33:49.739Z,28.47
2023-09-06T07:36:20.530Z,28.63
2023-09-06T07:38:48.367Z,28.51
2023-09-06T07:41:15.044Z,28.44
2023-09-06T07:43:42.298Z,28.04
2023-09-06T07:46:09.947Z,27.83
2023-09-06T07:48:37.041Z,27.78
2023-09-06T07:51:05.122Z,27.28
2023-09-06T07:53:31.916Z,27.36
2023-09-06T07:55:59.236Z,27.47
2023-09-06T07:58:30.458Z,27.55
2023-09-06T08:01:14.983Z,27.61
2023-09-06T08:03:45.975Z,27.34
2023-09-06T08:06:13.032Z,27.39
2023-09-06T08:08:41.067Z,27.35
2023-09-06T08:11:09.849Z,26.73
2023-09-06T08:13:36.951Z,26.90
2023-09-06T08:18:35.364Z,26.77
2023-09-06T08:21:03.252Z,26.14
2023-09-06T08:23:30.059Z,26.47
2023-09-06T08:25:57.994Z,26.56
2023-09-06T08:28:28.500Z,26.97
2023-09-06T08:30:56.860Z,26.54
2023-09-06T08:33:31.658Z,26.67
2023-09-06T08:36:05.766Z,27.06
2023-09-06T08:38:33.257Z,26.21
2023-09-06T08:41:00.939Z,26.49
2023-09-06T08:43:28.420Z,26.79
2023-09-06T08:45:57.332Z,27.06
2023-09-06T08:48:25.664Z,27.01
2023-09-06T08:50:56.455Z,26.30
2023-09-06T08:53:24.367Z,26.08
2023-09-06T08:55:51.811Z,26.59
2023-09-06T08:58:18.429Z,26.31
2023-09-06T09:00:47.332Z,25.89
2023-09-06T09:03:14.614Z,26.54
2023-09-06T09:05:43.789Z,26.59
2023-09-06T09:08:10.983Z,26.78
2023-09-06T09:10:38.696Z,26.45
2023-09-06T09:13:05.447Z,26.27
2023-09-06T09:15:33.134Z,26.43
2023-09-06T09:18:02.259Z,26.86
2023-09-06T09:20:37.274Z,27.04
2023-09-06T09:23:04.268Z,27.10
2023-09-06T09:25:33.279Z,27.30
2023-09-06T09:28:00.244Z,27.27
2023-09-06T09:30:28.062Z,26.91
2023-09-06T09:32:57.020Z,27.13
2023-09-06T09:38:27.718Z,27.18
2023-09-06T09:41:10.192Z,27.62
2023-09-06T09:43:44.212Z,26.84
2023-09-06T09:46:12.775Z,26.97
2023-09-06T09:48:39.844Z,27.28
2023-09-06T09:51:14.241Z,27.42
2023-09-06T09:56:58.391Z,26.93
2023-09-06T09:59:24.974Z,26.59
2023-09-06T10:01:54.404Z,26.88
2023-09-06T10:04:21.605Z,27.22
2023-09-06T10:06:48.786Z,27.37
2023-09-06T10:09:17.543Z,27.40
2023-09-06T10:11:51.567Z,27.71
2023-09-06T10:14:18.489Z,27.75
2023-09-06T10:16:51.410Z,27.64
2023-09-06T10:19:18.372Z,27.59
2023-09-06T10:21:45.119Z,27.99
2023-09-06T10:24:11.938Z,27.97
2023-09-06T10:26:38.645Z,27.87
2023-09-06T10:29:05.447Z,27.92
2023-09-06T10:31:32.363Z,27.76
2023-09-06T10:33:59.743Z,28.02
2023-09-06T10:36:26.655Z,27.94
2023-09-06T10:38:53.569Z,27.59
2023-09-06T10:41:20.645Z,27.34
2023-09-06T10:43:54.672Z,27.01
2023-09-06T10:46:21.744Z,27.44
2023-09-06T10:48:48.784Z,27.71
2023-09-06T10:51:15.447Z,27.91
2023-09-06T10:53:42.415Z,28.25
2023-09-06T10:56:09.345Z,28.43
2023-09-06T10:58:36.235Z,28.30
2023-09-06T11:01:03.723Z,27.58
2023-09-06T11:03:30.746Z,28.06
2023-09-06T11:05:57.837Z,28.20
2023-09-06T11:08:24.685Z,28.69
2023-09-06T11:10:51.363Z,28.97
2023-09-06T11:13:18.119Z,28.92
2023-09-06T11:15:44.883Z,29.06
2023-09-06T11:18:11.934Z,29.04
2023-09-06T11:20:39.365Z,28.93
2023-09-06T11:23:08.168Z,29.28
2023-09-06T11:25:35.254Z,29.38
2023-09-06T11:28:04.570Z,29.24
2023-09-06T11:30:32.921Z,28.66
2023-09-06T11:33:02.121Z,28.59
2023-09-06T11:35:28.988Z,28.24
2023-09-06T11:37:56.411Z,28.77
2023-09-06T11:40:23.468Z,28.48
2023-09-06T11:42:50.558Z,28.67
2023-09-06T11:45:19.836Z,28.95
2023-09-06T11:47:46.822Z,28.89
2023-09-06T11:50:13.745Z,28.84
2023-09-06T11:52:55.206Z,28.98
2023-09-06T11:55:24.253Z,29.29
2023-09-06T11:57:53.648Z,29.39
2023-09-06T12:00:22.396Z,29.30
2023-09-06T12:02:49.331Z,28.95
2023-09-06T12:05:16.073Z,29.36
2023-09-06T12:07:43.093Z,29.44
2023-09-06T12:10:10.533Z,29.11
2023-09-06T12:12:37.392Z,28.96
2023-09-06T12:15:04.244Z,28.94
2023-09-06T12:17:31.294Z,28.59
2023-09-06T12:20:00.454Z,28.57
2023-09-06T12:22:27.441Z,28.67
2023-09-06T12:24:56.093Z,28.79
2023-09-06T12:27:23.022Z,29.18
2023-09-06T12:29:52.154Z,29.31
2023-09-06T12:32:18.814Z,29.72
2023-09-06T12:34:45.701Z,29.67
2023-09-06T12:37:12.655Z,29.44
2023-09-06T12:39:41.614Z,29.62
2023-09-06T12:42:08.675Z,30.02
2023-09-06T12:44:37.984Z,30.10
2023-09-06T12:47:06.469Z,30.31
2023-09-06T12:49:33.137Z,30.35
2023-09-06T12:52:00.053Z,30.02
2023-09-06T12:54:26.957Z,30.52
2023-09-06T12:56:54.265Z,30.51
2023-09-06T12:59:21.352Z,29.86
2023-09-06T13:01:49.982Z,30.12
2023-09-06T13:04:16.888Z,30.29
2023-09-06T13:06:44.926Z,30.05
2023-09-06T13:09:11.916Z,30.19
2023-09-06T13:11:38.913Z,30.43
2023-09-06T13:14:05.825Z,30.63
2023-09-06T13:16:32.590Z,30.51
2023-09-06T13:19:04.428Z,30.20
2023-09-06T13:21:31.533Z,30.35
2023-09-06T13:24:00.887Z,30.41
2023-09-06T13:26:29.782Z,30.36
2023-09-06T13:28:56.636Z,30.38
2023-09-06T13:31:23.348Z,30.46
2023-09-06T13:33:50.802Z,30.78
2023-09-06T13:36:18.496Z,30.76
2023-09-06T13:38:48.155Z,30.99
2023-09-06T13:41:14.923Z,31.04
2023-09-06T13:43:42.020Z,30.98
2023-09-06T13:46:09.498Z,31.19
2023-09-06T13:48:37.343Z,31.18
2023-09-06T13:51:04.572Z,31.40
2023-09-06T13:53:32.337Z,30.89
2023-09-06T13:56:01.461Z,30.56
2023-09-06T13:58:31.730Z,31.13
2023-09-06T14:00:58.948Z,31.11
2023-09-06T14:03:26.258Z,30.94
2023-09-06T14:05:54.121Z,31.13
2023-09-06T14:08:20.897Z,30.78
2023-09-06T14:10:47.605Z,30.94
2023-09-06T14:13:14.518Z,30.53
2023-09-06T14:15:41.351Z,30.93
2023-09-06T14:18:08.386Z,30.85
2023-09-06T14:20:35.441Z,30.81
2023-09-06T14:23:02.560Z,30.56
2023-09-06T14:25:29.316Z,30.45
2023-09-06T14:27:55.870Z,30.68
2023-09-06T14:30:22.481Z,31.13
2023-09-06T14:32:49.263Z,31.16
2023-09-06T14:35:16.057Z,30.82
2023-09-06T14:37:42.773Z,30.96
2023-09-06T14:40:11.546Z,30.53
2023-09-06T14:42:40.044Z,30.63
2023-09-06T14:45:07.572Z,30.94
2023-09-06T14:47:34.537Z,30.99
2023-09-06T14:50:01.497Z,30.90
2023-09-06T14:52:31.150Z,30.97
2023-09-06T14:54:58.207Z,30.89
2023-09-06T14:57:27.303Z,30.50
2023-09-06T14:59:57.350Z,30.93
2023-09-06T15:02:24.107Z,31.14
2023-09-06T15:04:51.147Z,31.30
2023-09-06T15:07:17.821Z,31.43
2023-09-06T15:09:44.694Z,31.63
2023-09-06T15:12:23.788Z,31.73
2023-09-06T15:14:55.170Z,31.79
2023-09-06T15:17:22.965Z,31.31
2023-09-06T15:19:49.607Z,31.62
2023-09-06T15:22:29.089Z,31.74
2023-09-06T15:25:03.211Z,31.62
2023-09-06T15:27:30.095Z,31.43
2023-09-06T15:29:56.806Z,31.09
2023-09-06T15:32:25.039Z,31.27
2023-09-06T15:34:51.635Z,31.25
2023-09-06T15:37:18.648Z,31.49
2023-09-06T15:39:49.853Z,31.79
2023-09-06T15:42:16.923Z,31.89
2023-09-06T15:44:43.858Z,31.78
2023-09-06T15:47:13.078Z,31.98
2023-09-06T15:49:40.067Z,31.71
2023-09-06T15:52:06.936Z,31.33
2023-09-06T15:54:33.639Z,31.35
2023-09-06T15:57:05.477Z,31.29
2023-09-06T15:59:33.943Z,31.59
2023-09-06T16:49:48.370Z,31.40
2023-09-06T16:52:16.056Z,31.43
2023-09-06T16:54:42.825Z,31.30
2023-09-06T17:00:01.994Z,31.42
2023-09-06T17:02:29.380Z,31.20
2023-09-06T17:04:57.048Z,31.40
2023-09-06T17:07:23.716Z,31.21
2023-09-06T17:10:02.760Z,31.18
2023-09-06T17:12:30.495Z,31.20
2023-09-06T17:14:57.309Z,31.15
2023-09-06T17:17:24.026Z,31.05
2023-09-06T17:19:50.543Z,30.77
2023-09-06T17:22:18.579Z,30.90
2023-09-06T17:24:46.428Z,30.92
2023-09-06T17:27:13.025Z,30.82
2023-09-06T17:29:39.760Z,30.77
2023-09-06T17:32:07.237Z,30.82
2023-09-06T17:34:34.136Z,30.81
2023-09-06T17:37:01.066Z,30.63
2023-09-06T17:39:27.633Z,30.64
2023-09-06T17:41:54.378Z,30.45
2023-09-06T17:44:21.072Z,30.45
2023-09-06T17:46:48.009Z,30.45
2023-09-06T17:49:14.627Z,30.37
2023-09-06T17:51:41.692Z,30.33
2023-09-06T17:54:08.318Z,30.28
2023-09-06T17:56:35.999Z,30.14
2023-09-06T17:59:03.733Z,30.13
2023-09-06T18:01:30.444Z,30.09
2023-09-06T18:03:57.582Z,30.05
2023-09-06T18:06:24.445Z,30.00
2023-09-06T18:08:51.358Z,29.92
2023-09-06T18:11:17.909Z,29.85
2023-09-06T18:13:44.602Z,29.83
2023-09-06T18:16:11.193Z,29.75
2023-09-06T18:18:37.828Z,29.75
2023-09-06T18:21:05.446Z,29.70
2023-09-06T18:23:33.137Z,29.25
2023-09-06T18:26:01.973Z,28.97
2023-09-06T18:28:28.886Z,29.28
2023-09-06T18:30:55.696Z,29.25
2023-09-06T18:33:22.459Z,29.25
2023-09-06T18:35:49.135Z,29.16
2023-09-06T18:38:15.999Z,29.17
2023-09-06T18:40:43.582Z,29.12
2023-09-06T18:43:10.504Z,29.29
2023-09-06T18:45:37.054Z,29.29
2023-09-06T18:48:04.629Z,29.18
2023-09-06T18:50:31.280Z,29.28
2023-09-06T18:52:58.124Z,28.85
2023-09-06T18:55:25.716Z,28.79
2023-09-06T18:58:05.550Z,28.83
2023-09-06T19:00:34.142Z,28.90
2023-09-06T19:03:02.132Z,28.83
2023-09-06T19:05:28.801Z,28.11
2023-09-06T19:07:56.202Z,28.55
2023-09-06T19:10:23.049Z,28.67
2023-09-06T19:12:51.606Z,28.69
2023-09-06T19:15:18.444Z,28.57
2023-09-06T19:17:47.484Z,28.28
2023-09-06T19:20:14.184Z,27.96
2023-09-06T19:22:41.607Z,27.67
2023-09-06T19:25:08.158Z,27.53
2023-09-06T19:27:35.072Z,27.44
2023-09-06T19:30:02.360Z,27.55
2023-09-06T19:35:11.640Z,26.94
2023-09-06T19:37:39.314Z,27.16
2023-09-06T19:40:06.284Z,27.61
2023-09-06T19:42:34.542Z,27.88
2023-09-06T19:45:01.429Z,28.27
2023-09-06T19:47:28.128Z,28.38
2023-09-06T19:49:57.011Z,28.20
2023-09-06T19:52:26.569Z,28.54
2023-09-06T19:54:56.414Z,28.58
2023-09-06T19:57:24.496Z,28.64
2023-09-06T19:59:51.921Z,28.73
2023-09-06T20:02:19.041Z,28.51
2023-09-06T20:04:46.028Z,28.56
2023-09-06T20:07:13.107Z,28.24
2023-09-06T20:09:40.007Z,28.45
2023-09-06T20:12:06.651Z,27.96
2023-09-06T20:14:33.595Z,28.08
2023-09-06T20:17:00.622Z,28.04
2023-09-06T20:19:27.533Z,28.36
2023-09-06T20:21:54.168Z,28.12
2023-09-06T20:24:25.362Z,28.18
2023-09-06T20:26:52.117Z,28.36
2023-09-06T20:29:18.752Z,28.41
2023-09-06T20:31:46.023Z,28.29
2023-09-06T20:34:12.742Z,28.38
2023-09-06T20:36:39.589Z,28.40
2023-09-06T20:39:07.613Z,28.25
2023-09-06T20:41:35.832Z,27.99
2023-09-06T20:44:02.518Z,28.10
2023-09-06T20:46:35.097Z,28.10
2023-09-06T20:49:02.968Z,27.86
2023-09-06T20:51:30.608Z,28.00
2023-09-06T20:53:57.233Z,28.13
2023-09-06T20:56:24.756Z,28.04
2023-09-06T20:58:52.388Z,27.80
2023-09-06T21:01:19.107Z,27.75
2023-09-06T21:03:46.076Z,27.46
2023-09-06T21:06:13.074Z,27.26
2023-09-06T21:08:40.044Z,27.06
2023-09-06T21:11:06.946Z,26.90
2023-09-06T21:13:33.593Z,26.99
2023-09-06T21:16:01.187Z,27.31
2023-09-06T21:18:28.902Z,27.41
2023-09-06T21:20:55.893Z,27.30
2023-09-06T21:23:23.637Z,26.56
2023-09-06T21:25:50.250Z,26.64
2023-09-06T21:28:16.904Z,26.99
2023-09-06T21:30:49.655Z,27.09
2023-09-06T21:33:16.715Z,26.90
2023-09-06T21:35:43.985Z,27.00
2023-09-06T21:38:11.379Z,27.05
2023-09-06T21:40:37.944Z,26.90
2023-09-06T21:43:17.001Z,26.61
2023-09-06T21:45:46.261Z,26.51
2023-09-06T21:48:16.122Z,26.04
2023-09-06T21:50:45.381Z,25.93
2023-09-06T21:53:12.734Z,25.73
2023-09-06T21:55:40.298Z,25.52
2023-09-06T21:58:11.187Z,25.69
2023-09-06T22:00:41.680Z,25.98
2023-09-06T22:03:08.880Z,25.94
2023-09-06T22:05:36.184Z,26.01
2023-09-06T22:08:04.507Z,25.85
2023-09-06T22:10:31.086Z,25.82
2023-09-06T22:12:58.689Z,26.17
2023-09-06T22:15:25.644Z,26.12
2023-09-06T22:17:52.622Z,26.04
2023-09-06T22:20:19.384Z,26.37
2023-09-06T22:22:47.024Z,26.17
2023-09-06T22:25:14.006Z,25.96
2023-09-06T22:27:41.487Z,25.58
2023-09-06T22:30:08.352Z,25.77
2023-09-06T22:32:35.277Z,25.38
2023-09-06T22:35:02.749Z,25.55
2023-09-06T22:37:32.529Z,25.56
2023-09-06T22:39:59.576Z,25.77
2023-09-06T22:42:26.997Z,26.23
2023-09-06T22:44:53.848Z,26.21
2023-09-06T22:47:21.229Z,25.71
2023-09-06T22:49:48.083Z,25.78
2023-09-06T22:52:16.461Z,25.76
2023-09-06T22:54:43.929Z,25.31
2023-09-06T22:57:14.172Z,25.30
2023-09-06T22:59:40.846Z,24.99
2023-09-06T23:02:08.383Z,24.98
2023-09-06T23:04:35.158Z,25.50
2023-09-06T23:07:03.834Z,25.69
2023-09-06T23:09:31.596Z,26.05
2023-09-06T23:11:59.251Z,26.05
2023-09-06T23:14:28.108Z,25.68
2023-09-06T23:16:55.102Z,25.57
2023-09-06T23:19:23.556Z,25.23
2023-09-06T23:21:50.437Z,25.14
2023-09-06T23:24:17.414Z,25.20
2023-09-06T23:26:45.482Z,24.81
2023-09-06T23:29:12.402Z,25.20
2023-09-06T23:31:39.389Z,25.16
2023-09-06T23:34:07.113Z,25.56
2023-09-06T23:36:35.386Z,25.90
2023-09-06T23:39:04.483Z,25.97
2023-09-06T23:41:32.099Z,25.57
2023-09-06T23:44:06.266Z,25.79
2023-09-06T23:46:34.385Z,24.99
2023-09-06T23:49:01.432Z,24.42
2023-09-06T23:51:28.417Z,24.07
2023-09-06T23:53:56.121Z,24.04
2023-09-06T23:56:23.350Z,23.86
2023-09-06T23:58:50.213Z,24.20
